sensor_id;sensor_type;location;lat;lon;timestamp;P1;durP1;ratioP1;P2;durP2;ratioP2
52180;SDS011;38158;53.338;6.514;2023-07-16T00:00:09;12.25;;;2.90;;
52180;SDS011;38158;53.338;6.514;2023-07-16T00:02:37;6.90;;;2.30;;
52180;SDS011;38158;53.338;6.514;2023-07-16T00:05:04;11.70;;;2.88;;
52180;SDS011;38158;53.338;6.514;2023-07-16T00:07:30;10.50;;;2.53;;
52180;SDS011;38158;53.338;6.514;2023-07-16T00:09:56;7.68;;;2.53;;
52180;SDS011;38158;53.338;6.514;2023-07-16T00:12:22;12.95;;;3.28;;
52180;SDS011;38158;53.338;6.514;2023-07-16T00:14:48;9.85;;;2.88;;
52180;SDS011;38158;53.338;6.514;2023-07-16T00:17:13;8.50;;;2.13;;
52180;SDS011;38158;53.338;6.514;2023-07-16T00:19:39;7.97;;;2.30;;
52180;SDS011;38158;53.338;6.514;2023-07-16T00:22:05;8.00;;;3.20;;
52180;SDS011;38158;53.338;6.514;2023-07-16T00:24:31;9.25;;;3.17;;
52180;SDS011;38158;53.338;6.514;2023-07-16T00:26:57;9.63;;;2.25;;
52180;SDS011;38158;53.338;6.514;2023-07-16T00:29:22;6.38;;;2.30;;
52180;SDS011;38158;53.338;6.514;2023-07-16T00:31:48;10.07;;;2.55;;
52180;SDS011;38158;53.338;6.514;2023-07-16T00:34:14;9.15;;;2.30;;
52180;SDS011;38158;53.338;6.514;2023-07-16T00:36:40;9.65;;;2.67;;
52180;SDS011;38158;53.338;6.514;2023-07-16T00:39:05;11.50;;;2.70;;
52180;SDS011;38158;53.338;6.514;2023-07-16T00:41:31;9.25;;;2.45;;
52180;SDS011;38158;53.338;6.514;2023-07-16T00:43:57;10.50;;;2.58;;
52180;SDS011;38158;53.338;6.514;2023-07-16T00:46:23;8.35;;;2.33;;
52180;SDS011;38158;53.338;6.514;2023-07-16T00:48:49;6.82;;;2.50;;
52180;SDS011;38158;53.338;6.514;2023-07-16T00:51:15;9.57;;;2.60;;
52180;SDS011;38158;53.338;6.514;2023-07-16T00:53:41;10.23;;;2.70;;
52180;SDS011;38158;53.338;6.514;2023-07-16T00:56:08;9.27;;;2.23;;
52180;SDS011;38158;53.338;6.514;2023-07-16T01:01:00;9.48;;;2.20;;
52180;SDS011;38158;53.338;6.514;2023-07-16T01:03:26;8.90;;;2.60;;
52180;SDS011;38158;53.338;6.514;2023-07-16T01:06:06;8.18;;;2.75;;
52180;SDS011;38158;53.338;6.514;2023-07-16T01:09:00;8.02;;;2.60;;
52180;SDS011;38158;53.338;6.514;2023-07-16T01:11:36;9.60;;;2.33;;
52180;SDS011;38158;53.338;6.514;2023-07-16T01:14:04;10.60;;;2.65;;
52180;SDS011;38158;53.338;6.514;2023-07-16T01:16:31;10.43;;;3.35;;
52180;SDS011;38158;53.338;6.514;2023-07-16T01:18:57;10.98;;;3.08;;
52180;SDS011;38158;53.338;6.514;2023-07-16T01:21:23;10.38;;;2.67;;
52180;SDS011;38158;53.338;6.514;2023-07-16T01:26:32;11.13;;;2.47;;
52180;SDS011;38158;53.338;6.514;2023-07-16T01:31:55;13.35;;;2.75;;
52180;SDS011;38158;53.338;6.514;2023-07-16T01:34:24;8.35;;;3.03;;
52180;SDS011;38158;53.338;6.514;2023-07-16T01:36:53;9.68;;;2.83;;
52180;SDS011;38158;53.338;6.514;2023-07-16T01:39:19;10.05;;;2.67;;
52180;SDS011;38158;53.338;6.514;2023-07-16T01:41:45;14.18;;;3.10;;
52180;SDS011;38158;53.338;6.514;2023-07-16T01:44:10;13.90;;;2.90;;
52180;SDS011;38158;53.338;6.514;2023-07-16T01:46:36;10.75;;;3.20;;
52180;SDS011;38158;53.338;6.514;2023-07-16T01:49:02;10.55;;;2.70;;
52180;SDS011;38158;53.338;6.514;2023-07-16T01:51:28;8.18;;;2.80;;
52180;SDS011;38158;53.338;6.514;2023-07-16T01:53:53;12.80;;;2.97;;
52180;SDS011;38158;53.338;6.514;2023-07-16T01:56:19;7.47;;;2.80;;
52180;SDS011;38158;53.338;6.514;2023-07-16T01:58:45;10.27;;;2.63;;
52180;SDS011;38158;53.338;6.514;2023-07-16T02:01:11;9.50;;;2.53;;
52180;SDS011;38158;53.338;6.514;2023-07-16T02:03:36;10.30;;;2.90;;
52180;SDS011;38158;53.338;6.514;2023-07-16T02:06:02;12.27;;;3.08;;
52180;SDS011;38158;53.338;6.514;2023-07-16T02:08:28;8.55;;;2.05;;
52180;SDS011;38158;53.338;6.514;2023-07-16T02:10:53;7.47;;;2.75;;
52180;SDS011;38158;53.338;6.514;2023-07-16T02:13:19;11.30;;;2.78;;
52180;SDS011;38158;53.338;6.514;2023-07-16T02:15:45;10.10;;;2.80;;
52180;SDS011;38158;53.338;6.514;2023-07-16T02:18:10;9.30;;;2.92;;
52180;SDS011;38158;53.338;6.514;2023-07-16T02:20:36;11.40;;;3.00;;
52180;SDS011;38158;53.338;6.514;2023-07-16T02:23:02;9.73;;;2.40;;
52180;SDS011;38158;53.338;6.514;2023-07-16T02:25:27;8.55;;;2.60;;
52180;SDS011;38158;53.338;6.514;2023-07-16T02:27:53;6.00;;;2.20;;
52180;SDS011;38158;53.338;6.514;2023-07-16T02:30:19;11.75;;;2.45;;
52180;SDS011;38158;53.338;6.514;2023-07-16T02:32:45;9.48;;;2.30;;
52180;SDS011;38158;53.338;6.514;2023-07-16T02:35:11;10.80;;;2.83;;
52180;SDS011;38158;53.338;6.514;2023-07-16T02:37:36;8.60;;;2.30;;
52180;SDS011;38158;53.338;6.514;2023-07-16T02:40:02;6.00;;;2.03;;
52180;SDS011;38158;53.338;6.514;2023-07-16T02:42:29;12.10;;;2.90;;
52180;SDS011;38158;53.338;6.514;2023-07-16T02:44:54;11.48;;;2.55;;
52180;SDS011;38158;53.338;6.514;2023-07-16T02:47:20;6.97;;;2.22;;
52180;SDS011;38158;53.338;6.514;2023-07-16T02:49:46;10.52;;;3.22;;
52180;SDS011;38158;53.338;6.514;2023-07-16T02:52:11;11.50;;;3.13;;
52180;SDS011;38158;53.338;6.514;2023-07-16T02:54:37;9.10;;;2.63;;
52180;SDS011;38158;53.338;6.514;2023-07-16T02:57:05;8.52;;;2.42;;
52180;SDS011;38158;53.338;6.514;2023-07-16T02:59:31;11.18;;;3.03;;
52180;SDS011;38158;53.338;6.514;2023-07-16T03:01:57;7.35;;;2.85;;
52180;SDS011;38158;53.338;6.514;2023-07-16T03:04:22;8.85;;;2.72;;
52180;SDS011;38158;53.338;6.514;2023-07-16T03:06:48;9.65;;;3.22;;
52180;SDS011;38158;53.338;6.514;2023-07-16T03:09:14;12.48;;;3.03;;
52180;SDS011;38158;53.338;6.514;2023-07-16T03:11:40;13.00;;;3.38;;
52180;SDS011;38158;53.338;6.514;2023-07-16T03:14:05;11.82;;;3.20;;
52180;SDS011;38158;53.338;6.514;2023-07-16T03:16:31;7.15;;;2.63;;
52180;SDS011;38158;53.338;6.514;2023-07-16T03:18:57;6.72;;;2.80;;
52180;SDS011;38158;53.338;6.514;2023-07-16T03:21:23;9.40;;;2.90;;
52180;SDS011;38158;53.338;6.514;2023-07-16T03:23:48;11.90;;;3.53;;
52180;SDS011;38158;53.338;6.514;2023-07-16T03:26:14;9.75;;;3.47;;
52180;SDS011;38158;53.338;6.514;2023-07-16T03:28:40;6.72;;;2.67;;
52180;SDS011;38158;53.338;6.514;2023-07-16T03:31:05;11.32;;;3.97;;
52180;SDS011;38158;53.338;6.514;2023-07-16T03:33:31;10.77;;;3.67;;
52180;SDS011;38158;53.338;6.514;2023-07-16T03:35:57;10.38;;;3.22;;
52180;SDS011;38158;53.338;6.514;2023-07-16T03:38:22;11.02;;;3.30;;
52180;SDS011;38158;53.338;6.514;2023-07-16T03:40:48;8.95;;;3.28;;
52180;SDS011;38158;53.338;6.514;2023-07-16T03:43:15;14.52;;;3.30;;
52180;SDS011;38158;53.338;6.514;2023-07-16T03:45:42;13.57;;;3.78;;
52180;SDS011;38158;53.338;6.514;2023-07-16T03:48:07;8.88;;;3.65;;
52180;SDS011;38158;53.338;6.514;2023-07-16T03:50:33;12.50;;;3.40;;
52180;SDS011;38158;53.338;6.514;2023-07-16T03:52:59;10.95;;;3.38;;
52180;SDS011;38158;53.338;6.514;2023-07-16T03:55:25;8.23;;;3.58;;
52180;SDS011;38158;53.338;6.514;2023-07-16T03:57:51;15.73;;;3.65;;
52180;SDS011;38158;53.338;6.514;2023-07-16T04:00:17;9.77;;;4.35;;
52180;SDS011;38158;53.338;6.514;2023-07-16T04:02:42;11.20;;;4.32;;
52180;SDS011;38158;53.338;6.514;2023-07-16T04:05:08;12.20;;;3.90;;
52180;SDS011;38158;53.338;6.514;2023-07-16T04:07:34;11.48;;;4.00;;
52180;SDS011;38158;53.338;6.514;2023-07-16T04:10:00;11.32;;;4.40;;
52180;SDS011;38158;53.338;6.514;2023-07-16T04:12:26;12.02;;;3.53;;
52180;SDS011;38158;53.338;6.514;2023-07-16T04:14:56;14.48;;;4.68;;
52180;SDS011;38158;53.338;6.514;2023-07-16T04:17:23;9.57;;;3.97;;
52180;SDS011;38158;53.338;6.514;2023-07-16T04:19:49;12.35;;;3.90;;
52180;SDS011;38158;53.338;6.514;2023-07-16T04:22:15;9.52;;;3.50;;
52180;SDS011;38158;53.338;6.514;2023-07-16T04:24:40;11.65;;;4.25;;
52180;SDS011;38158;53.338;6.514;2023-07-16T04:27:06;12.50;;;4.13;;
52180;SDS011;38158;53.338;6.514;2023-07-16T04:29:32;9.40;;;3.58;;
52180;SDS011;38158;53.338;6.514;2023-07-16T04:31:58;12.80;;;4.55;;
52180;SDS011;38158;53.338;6.514;2023-07-16T04:34:24;11.45;;;4.72;;
52180;SDS011;38158;53.338;6.514;2023-07-16T04:36:50;7.70;;;3.35;;
52180;SDS011;38158;53.338;6.514;2023-07-16T04:39:15;11.38;;;4.07;;
52180;SDS011;38158;53.338;6.514;2023-07-16T04:41:41;15.15;;;4.28;;
52180;SDS011;38158;53.338;6.514;2023-07-16T04:44:07;14.18;;;4.72;;
52180;SDS011;38158;53.338;6.514;2023-07-16T04:46:33;10.43;;;4.30;;
52180;SDS011;38158;53.338;6.514;2023-07-16T04:48:58;9.57;;;3.80;;
52180;SDS011;38158;53.338;6.514;2023-07-16T04:51:24;15.07;;;4.30;;
52180;SDS011;38158;53.338;6.514;2023-07-16T04:53:50;14.57;;;4.85;;
52180;SDS011;38158;53.338;6.514;2023-07-16T04:56:16;9.52;;;4.05;;
52180;SDS011;38158;53.338;6.514;2023-07-16T04:58:42;13.43;;;4.38;;
52180;SDS011;38158;53.338;6.514;2023-07-16T05:01:08;10.23;;;4.80;;
52180;SDS011;38158;53.338;6.514;2023-07-16T05:03:35;13.32;;;4.43;;
52180;SDS011;38158;53.338;6.514;2023-07-16T05:06:01;10.38;;;4.82;;
52180;SDS011;38158;53.338;6.514;2023-07-16T05:08:27;9.82;;;4.65;;
52180;SDS011;38158;53.338;6.514;2023-07-16T05:10:53;12.40;;;4.90;;
52180;SDS011;38158;53.338;6.514;2023-07-16T05:13:18;11.27;;;4.10;;
52180;SDS011;38158;53.338;6.514;2023-07-16T05:15:44;9.90;;;4.45;;
52180;SDS011;38158;53.338;6.514;2023-07-16T05:18:10;13.75;;;4.68;;
52180;SDS011;38158;53.338;6.514;2023-07-16T05:20:36;15.80;;;5.07;;
52180;SDS011;38158;53.338;6.514;2023-07-16T05:23:02;11.88;;;5.60;;
52180;SDS011;38158;53.338;6.514;2023-07-16T05:25:28;9.38;;;4.70;;
52180;SDS011;38158;53.338;6.514;2023-07-16T05:27:53;12.32;;;5.15;;
52180;SDS011;38158;53.338;6.514;2023-07-16T05:30:19;15.68;;;5.35;;
52180;SDS011;38158;53.338;6.514;2023-07-16T05:32:45;14.55;;;4.75;;
52180;SDS011;38158;53.338;6.514;2023-07-16T05:35:10;12.95;;;5.32;;
52180;SDS011;38158;53.338;6.514;2023-07-16T05:37:36;9.88;;;4.53;;
52180;SDS011;38158;53.338;6.514;2023-07-16T05:40:02;12.00;;;5.03;;
52180;SDS011;38158;53.338;6.514;2023-07-16T05:42:28;14.40;;;5.53;;
52180;SDS011;38158;53.338;6.514;2023-07-16T05:44:54;13.07;;;4.43;;
52180;SDS011;38158;53.338;6.514;2023-07-16T05:47:20;11.70;;;4.05;;
52180;SDS011;38158;53.338;6.514;2023-07-16T05:49:46;10.98;;;3.65;;
52180;SDS011;38158;53.338;6.514;2023-07-16T05:52:11;9.63;;;3.92;;
52180;SDS011;38158;53.338;6.514;2023-07-16T05:54:37;10.63;;;3.75;;
52180;SDS011;38158;53.338;6.514;2023-07-16T05:57:03;12.32;;;4.25;;
52180;SDS011;38158;53.338;6.514;2023-07-16T05:59:29;9.25;;;3.97;;
52180;SDS011;38158;53.338;6.514;2023-07-16T06:01:59;8.25;;;3.80;;
52180;SDS011;38158;53.338;6.514;2023-07-16T06:04:25;12.20;;;3.47;;
52180;SDS011;38158;53.338;6.514;2023-07-16T06:06:50;11.55;;;3.80;;
52180;SDS011;38158;53.338;6.514;2023-07-16T06:09:16;10.60;;;4.05;;
52180;SDS011;38158;53.338;6.514;2023-07-16T06:11:42;8.18;;;3.95;;
52180;SDS011;38158;53.338;6.514;2023-07-16T06:14:10;10.93;;;3.70;;
52180;SDS011;38158;53.338;6.514;2023-07-16T06:16:36;8.70;;;3.33;;
52180;SDS011;38158;53.338;6.514;2023-07-16T06:19:02;6.57;;;3.28;;
52180;SDS011;38158;53.338;6.514;2023-07-16T06:21:28;11.10;;;3.45;;
52180;SDS011;38158;53.338;6.514;2023-07-16T06:23:53;7.53;;;3.38;;
52180;SDS011;38158;53.338;6.514;2023-07-16T06:26:19;9.80;;;3.42;;
52180;SDS011;38158;53.338;6.514;2023-07-16T06:28:45;10.23;;;4.10;;
52180;SDS011;38158;53.338;6.514;2023-07-16T06:31:14;11.68;;;3.47;;
52180;SDS011;38158;53.338;6.514;2023-07-16T06:33:40;16.25;;;4.03;;
52180;SDS011;38158;53.338;6.514;2023-07-16T06:36:06;11.20;;;4.10;;
52180;SDS011;38158;53.338;6.514;2023-07-16T06:38:31;9.32;;;3.13;;
52180;SDS011;38158;53.338;6.514;2023-07-16T06:40:57;9.02;;;3.88;;
52180;SDS011;38158;53.338;6.514;2023-07-16T06:43:23;10.23;;;3.72;;
52180;SDS011;38158;53.338;6.514;2023-07-16T06:45:49;12.93;;;3.97;;
52180;SDS011;38158;53.338;6.514;2023-07-16T06:48:17;8.80;;;3.47;;
52180;SDS011;38158;53.338;6.514;2023-07-16T06:50:43;8.02;;;3.00;;
52180;SDS011;38158;53.338;6.514;2023-07-16T06:53:10;12.53;;;4.37;;
52180;SDS011;38158;53.338;6.514;2023-07-16T06:55:36;12.07;;;4.63;;
52180;SDS011;38158;53.338;6.514;2023-07-16T06:58:02;9.57;;;3.88;;
52180;SDS011;38158;53.338;6.514;2023-07-16T07:00:28;13.90;;;4.40;;
52180;SDS011;38158;53.338;6.514;2023-07-16T07:02:54;13.70;;;5.03;;
52180;SDS011;38158;53.338;6.514;2023-07-16T07:05:20;10.25;;;4.38;;
52180;SDS011;38158;53.338;6.514;2023-07-16T07:07:46;11.25;;;4.20;;
52180;SDS011;38158;53.338;6.514;2023-07-16T07:10:12;12.55;;;4.53;;
52180;SDS011;38158;53.338;6.514;2023-07-16T07:12:38;14.70;;;3.93;;
52180;SDS011;38158;53.338;6.514;2023-07-16T07:15:05;12.90;;;4.25;;
52180;SDS011;38158;53.338;6.514;2023-07-16T07:17:32;14.60;;;3.97;;
52180;SDS011;38158;53.338;6.514;2023-07-16T07:19:57;10.57;;;4.60;;
52180;SDS011;38158;53.338;6.514;2023-07-16T07:22:23;9.73;;;4.25;;
52180;SDS011;38158;53.338;6.514;2023-07-16T07:24:49;7.38;;;3.85;;
52180;SDS011;38158;53.338;6.514;2023-07-16T07:27:15;14.48;;;5.28;;
52180;SDS011;38158;53.338;6.514;2023-07-16T07:29:41;12.82;;;4.50;;
52180;SDS011;38158;53.338;6.514;2023-07-16T07:32:07;8.13;;;3.80;;
52180;SDS011;38158;53.338;6.514;2023-07-16T07:34:33;7.30;;;2.92;;
52180;SDS011;38158;53.338;6.514;2023-07-16T07:36:59;11.00;;;3.90;;
52180;SDS011;38158;53.338;6.514;2023-07-16T07:39:24;12.60;;;3.97;;
52180;SDS011;38158;53.338;6.514;2023-07-16T07:41:50;7.50;;;3.45;;
52180;SDS011;38158;53.338;6.514;2023-07-16T07:44:16;13.02;;;4.05;;
52180;SDS011;38158;53.338;6.514;2023-07-16T07:46:41;11.43;;;4.43;;
52180;SDS011;38158;53.338;6.514;2023-07-16T07:49:07;10.85;;;4.97;;
52180;SDS011;38158;53.338;6.514;2023-07-16T07:51:33;11.63;;;5.05;;
52180;SDS011;38158;53.338;6.514;2023-07-16T07:53:59;8.00;;;3.85;;
52180;SDS011;38158;53.338;6.514;2023-07-16T07:56:25;14.05;;;4.38;;
52180;SDS011;38158;53.338;6.514;2023-07-16T07:58:51;11.02;;;4.97;;
52180;SDS011;38158;53.338;6.514;2023-07-16T08:01:16;10.07;;;4.45;;
52180;SDS011;38158;53.338;6.514;2023-07-16T08:03:42;10.95;;;4.55;;
52180;SDS011;38158;53.338;6.514;2023-07-16T08:06:08;9.40;;;4.20;;
52180;SDS011;38158;53.338;6.514;2023-07-16T08:08:33;9.85;;;3.90;;
52180;SDS011;38158;53.338;6.514;2023-07-16T08:10:59;11.32;;;4.13;;
52180;SDS011;38158;53.338;6.514;2023-07-16T08:13:25;8.75;;;3.72;;
52180;SDS011;38158;53.338;6.514;2023-07-16T08:15:51;9.27;;;4.40;;
52180;SDS011;38158;53.338;6.514;2023-07-16T08:18:17;9.93;;;4.72;;
52180;SDS011;38158;53.338;6.514;2023-07-16T08:20:42;9.18;;;4.15;;
52180;SDS011;38158;53.338;6.514;2023-07-16T08:23:08;9.88;;;4.85;;
52180;SDS011;38158;53.338;6.514;2023-07-16T08:25:34;13.73;;;4.28;;
52180;SDS011;38158;53.338;6.514;2023-07-16T08:28:02;7.47;;;3.90;;
52180;SDS011;38158;53.338;6.514;2023-07-16T08:30:28;8.68;;;3.58;;
52180;SDS011;38158;53.338;6.514;2023-07-16T08:32:53;9.20;;;4.07;;
52180;SDS011;38158;53.338;6.514;2023-07-16T08:35:19;8.95;;;4.25;;
52180;SDS011;38158;53.338;6.514;2023-07-16T08:37:45;10.52;;;3.70;;
52180;SDS011;38158;53.338;6.514;2023-07-16T08:40:11;12.17;;;4.47;;
52180;SDS011;38158;53.338;6.514;2023-07-16T08:42:38;10.02;;;4.05;;
52180;SDS011;38158;53.338;6.514;2023-07-16T08:45:06;6.55;;;3.45;;
52180;SDS011;38158;53.338;6.514;2023-07-16T08:47:34;7.57;;;3.50;;
52180;SDS011;38158;53.338;6.514;2023-07-16T08:50:01;10.63;;;4.38;;
52180;SDS011;38158;53.338;6.514;2023-07-16T08:52:27;9.85;;;4.47;;
52180;SDS011;38158;53.338;6.514;2023-07-16T08:54:53;10.48;;;4.85;;
52180;SDS011;38158;53.338;6.514;2023-07-16T08:57:20;9.98;;;4.25;;
52180;SDS011;38158;53.338;6.514;2023-07-16T08:59:50;11.10;;;4.40;;
52180;SDS011;38158;53.338;6.514;2023-07-16T09:02:19;8.90;;;4.28;;
52180;SDS011;38158;53.338;6.514;2023-07-16T09:04:49;9.55;;;4.25;;
52180;SDS011;38158;53.338;6.514;2023-07-16T09:07:19;12.32;;;4.32;;
52180;SDS011;38158;53.338;6.514;2023-07-16T09:09:54;9.93;;;4.22;;
52180;SDS011;38158;53.338;6.514;2023-07-16T09:12:24;10.82;;;4.53;;
52180;SDS011;38158;53.338;6.514;2023-07-16T09:14:50;9.25;;;3.72;;
52180;SDS011;38158;53.338;6.514;2023-07-16T09:17:20;13.52;;;4.20;;
52180;SDS011;38158;53.338;6.514;2023-07-16T09:19:53;11.32;;;4.07;;
52180;SDS011;38158;53.338;6.514;2023-07-16T09:22:19;8.77;;;4.75;;
52180;SDS011;38158;53.338;6.514;2023-07-16T09:24:45;13.15;;;4.78;;
52180;SDS011;38158;53.338;6.514;2023-07-16T09:27:12;5.97;;;3.17;;
52180;SDS011;38158;53.338;6.514;2023-07-16T09:29:38;9.30;;;4.25;;
52180;SDS011;38158;53.338;6.514;2023-07-16T09:32:04;11.20;;;4.25;;
52180;SDS011;38158;53.338;6.514;2023-07-16T09:34:31;11.20;;;3.43;;
52180;SDS011;38158;53.338;6.514;2023-07-16T09:36:57;6.90;;;3.23;;
52180;SDS011;38158;53.338;6.514;2023-07-16T09:39:23;12.25;;;3.90;;
52180;SDS011;38158;53.338;6.514;2023-07-16T09:41:51;11.13;;;4.32;;
52180;SDS011;38158;53.338;6.514;2023-07-16T09:44:17;11.48;;;4.32;;
52180;SDS011;38158;53.338;6.514;2023-07-16T09:46:43;10.65;;;3.97;;
52180;SDS011;38158;53.338;6.514;2023-07-16T09:49:10;11.07;;;3.92;;
52180;SDS011;38158;53.338;6.514;2023-07-16T09:51:36;11.13;;;4.10;;
52180;SDS011;38158;53.338;6.514;2023-07-16T09:54:03;11.13;;;4.68;;
52180;SDS011;38158;53.338;6.514;2023-07-16T09:56:35;9.88;;;3.53;;
52180;SDS011;38158;53.338;6.514;2023-07-16T09:59:05;7.90;;;3.90;;
52180;SDS011;38158;53.338;6.514;2023-07-16T10:01:35;10.27;;;4.30;;
52180;SDS011;38158;53.338;6.514;2023-07-16T10:04:17;10.23;;;4.13;;
52180;SDS011;38158;53.338;6.514;2023-07-16T10:06:50;12.43;;;4.40;;
52180;SDS011;38158;53.338;6.514;2023-07-16T10:14:49;6.20;;;3.35;;
52180;SDS011;38158;53.338;6.514;2023-07-16T10:17:20;8.88;;;3.70;;
52180;SDS011;38158;53.338;6.514;2023-07-16T10:19:57;8.38;;;3.85;;
52180;SDS011;38158;53.338;6.514;2023-07-16T10:22:31;7.70;;;3.15;;
52180;SDS011;38158;53.338;6.514;2023-07-16T10:27:34;8.88;;;3.88;;
52180;SDS011;38158;53.338;6.514;2023-07-16T10:32:30;10.07;;;3.38;;
52180;SDS011;38158;53.338;6.514;2023-07-16T10:34:57;10.13;;;4.18;;
52180;SDS011;38158;53.338;6.514;2023-07-16T10:37:24;6.70;;;3.43;;
52180;SDS011;38158;53.338;6.514;2023-07-16T10:39:51;8.95;;;3.80;;
52180;SDS011;38158;53.338;6.514;2023-07-16T10:42:19;11.90;;;3.58;;
52180;SDS011;38158;53.338;6.514;2023-07-16T10:44:48;8.23;;;3.50;;
52180;SDS011;38158;53.338;6.514;2023-07-16T10:47:19;11.25;;;4.40;;
52180;SDS011;38158;53.338;6.514;2023-07-16T10:49:52;9.18;;;3.90;;
52180;SDS011;38158;53.338;6.514;2023-07-16T10:52:19;7.75;;;3.60;;
52180;SDS011;38158;53.338;6.514;2023-07-16T10:54:46;7.53;;;4.22;;
52180;SDS011;38158;53.338;6.514;2023-07-16T10:57:13;9.07;;;4.45;;
52180;SDS011;38158;53.338;6.514;2023-07-16T10:59:41;8.82;;;3.92;;
52180;SDS011;38158;53.338;6.514;2023-07-16T11:02:12;10.23;;;4.60;;
52180;SDS011;38158;53.338;6.514;2023-07-16T11:04:39;12.48;;;4.57;;
52180;SDS011;38158;53.338;6.514;2023-07-16T11:07:09;9.75;;;4.07;;
52180;SDS011;38158;53.338;6.514;2023-07-16T11:12:12;10.27;;;4.30;;
52180;SDS011;38158;53.338;6.514;2023-07-16T11:14:42;11.68;;;4.30;;
52180;SDS011;38158;53.338;6.514;2023-07-16T11:17:09;9.65;;;3.75;;
52180;SDS011;38158;53.338;6.514;2023-07-16T11:19:36;6.70;;;3.30;;
52180;SDS011;38158;53.338;6.514;2023-07-16T11:22:03;7.55;;;3.60;;
52180;SDS011;38158;53.338;6.514;2023-07-16T11:24:40;9.43;;;3.40;;
52180;SDS011;38158;53.338;6.514;2023-07-16T11:27:18;8.38;;;3.80;;
52180;SDS011;38158;53.338;6.514;2023-07-16T11:29:48;7.18;;;3.85;;
52180;SDS011;38158;53.338;6.514;2023-07-16T11:32:35;8.43;;;3.60;;
52180;SDS011;38158;53.338;6.514;2023-07-16T11:35:03;7.50;;;3.63;;
52180;SDS011;38158;53.338;6.514;2023-07-16T11:37:31;8.25;;;3.28;;
52180;SDS011;38158;53.338;6.514;2023-07-16T11:39:59;11.15;;;4.03;;
52180;SDS011;38158;53.338;6.514;2023-07-16T11:42:28;6.78;;;3.13;;
52180;SDS011;38158;53.338;6.514;2023-07-16T11:44:56;8.88;;;3.28;;
52180;SDS011;38158;53.338;6.514;2023-07-16T11:47:22;6.93;;;3.35;;
52180;SDS011;38158;53.338;6.514;2023-07-16T11:49:48;9.90;;;4.03;;
52180;SDS011;38158;53.338;6.514;2023-07-16T11:52:14;12.27;;;4.20;;
52180;SDS011;38158;53.338;6.514;2023-07-16T11:54:44;8.35;;;3.60;;
52180;SDS011;38158;53.338;6.514;2023-07-16T11:57:09;9.75;;;3.92;;
52180;SDS011;38158;53.338;6.514;2023-07-16T11:59:35;6.97;;;3.30;;
52180;SDS011;38158;53.338;6.514;2023-07-16T12:02:01;7.45;;;2.60;;
52180;SDS011;38158;53.338;6.514;2023-07-16T12:04:28;7.47;;;2.63;;
52180;SDS011;38158;53.338;6.514;2023-07-16T12:06:53;8.70;;;2.78;;
52180;SDS011;38158;53.338;6.514;2023-07-16T12:09:19;8.68;;;2.90;;
52180;SDS011;38158;53.338;6.514;2023-07-16T12:11:45;9.90;;;3.47;;
52180;SDS011;38158;53.338;6.514;2023-07-16T12:14:11;9.80;;;2.80;;
52180;SDS011;38158;53.338;6.514;2023-07-16T12:16:38;9.85;;;3.20;;
52180;SDS011;38158;53.338;6.514;2023-07-16T12:19:05;9.60;;;3.92;;
52180;SDS011;38158;53.338;6.514;2023-07-16T12:21:32;10.00;;;3.38;;
52180;SDS011;38158;53.338;6.514;2023-07-16T12:23:58;8.88;;;3.05;;
52180;SDS011;38158;53.338;6.514;2023-07-16T12:26:23;10.73;;;4.25;;
52180;SDS011;38158;53.338;6.514;2023-07-16T12:28:49;9.68;;;3.67;;
52180;SDS011;38158;53.338;6.514;2023-07-16T12:31:15;7.55;;;3.40;;
52180;SDS011;38158;53.338;6.514;2023-07-16T12:36:08;8.77;;;4.60;;
52180;SDS011;38158;53.338;6.514;2023-07-16T12:38:34;15.60;;;4.90;;
52180;SDS011;38158;53.338;6.514;2023-07-16T12:41:00;11.18;;;4.32;;
52180;SDS011;38158;53.338;6.514;2023-07-16T12:43:25;9.80;;;4.35;;
52180;SDS011;38158;53.338;6.514;2023-07-16T12:45:51;16.25;;;4.22;;
52180;SDS011;38158;53.338;6.514;2023-07-16T12:48:17;10.25;;;3.88;;
52180;SDS011;38158;53.338;6.514;2023-07-16T12:50:43;9.45;;;3.33;;
52180;SDS011;38158;53.338;6.514;2023-07-16T12:53:08;8.73;;;3.60;;
52180;SDS011;38158;53.338;6.514;2023-07-16T12:55:34;9.82;;;3.58;;
52180;SDS011;38158;53.338;6.514;2023-07-16T12:58:00;13.70;;;4.00;;
52180;SDS011;38158;53.338;6.514;2023-07-16T13:00:25;10.27;;;3.25;;
52180;SDS011;38158;53.338;6.514;2023-07-16T13:02:51;12.25;;;4.88;;
52180;SDS011;38158;53.338;6.514;2023-07-16T13:05:17;9.82;;;3.30;;
52180;SDS011;38158;53.338;6.514;2023-07-16T13:07:43;8.85;;;3.40;;
52180;SDS011;38158;53.338;6.514;2023-07-16T13:10:08;10.50;;;3.75;;
52180;SDS011;38158;53.338;6.514;2023-07-16T13:12:35;8.00;;;3.37;;
52180;SDS011;38158;53.338;6.514;2023-07-16T13:15:00;10.15;;;3.90;;
52180;SDS011;38158;53.338;6.514;2023-07-16T13:17:26;12.38;;;3.38;;
52180;SDS011;38158;53.338;6.514;2023-07-16T13:19:52;12.25;;;3.65;;
52180;SDS011;38158;53.338;6.514;2023-07-16T13:22:17;11.93;;;4.00;;
52180;SDS011;38158;53.338;6.514;2023-07-16T13:24:43;8.52;;;2.92;;
52180;SDS011;38158;53.338;6.514;2023-07-16T13:27:21;12.23;;;3.47;;
52180;SDS011;38158;53.338;6.514;2023-07-16T13:29:48;14.25;;;3.47;;
52180;SDS011;38158;53.338;6.514;2023-07-16T13:32:14;10.02;;;3.10;;
52180;SDS011;38158;53.338;6.514;2023-07-16T13:34:40;12.70;;;2.92;;
52180;SDS011;38158;53.338;6.514;2023-07-16T13:37:05;10.50;;;3.35;;
52180;SDS011;38158;53.338;6.514;2023-07-16T13:39:31;10.57;;;2.80;;
52180;SDS011;38158;53.338;6.514;2023-07-16T13:41:57;9.15;;;2.15;;
52180;SDS011;38158;53.338;6.514;2023-07-16T13:44:23;10.57;;;2.08;;
52180;SDS011;38158;53.338;6.514;2023-07-16T13:46:48;10.27;;;2.15;;
52180;SDS011;38158;53.338;6.514;2023-07-16T13:49:14;11.73;;;2.33;;
52180;SDS011;38158;53.338;6.514;2023-07-16T13:51:40;8.48;;;1.90;;
52180;SDS011;38158;53.338;6.514;2023-07-16T13:54:05;7.20;;;1.95;;
52180;SDS011;38158;53.338;6.514;2023-07-16T13:56:31;7.53;;;1.55;;
52180;SDS011;38158;53.338;6.514;2023-07-16T13:58:57;8.65;;;1.45;;
52180;SDS011;38158;53.338;6.514;2023-07-16T14:01:22;9.20;;;1.60;;
52180;SDS011;38158;53.338;6.514;2023-07-16T14:03:49;8.27;;;1.33;;
52180;SDS011;38158;53.338;6.514;2023-07-16T14:06:17;9.40;;;1.80;;
52180;SDS011;38158;53.338;6.514;2023-07-16T14:08:43;8.63;;;1.40;;
52180;SDS011;38158;53.338;6.514;2023-07-16T14:11:09;10.80;;;2.45;;
52180;SDS011;38158;53.338;6.514;2023-07-16T14:13:35;15.02;;;2.90;;
52180;SDS011;38158;53.338;6.514;2023-07-16T14:16:00;14.93;;;2.60;;
52180;SDS011;38158;53.338;6.514;2023-07-16T14:18:26;12.57;;;3.90;;
52180;SDS011;38158;53.338;6.514;2023-07-16T14:20:51;11.27;;;2.65;;
52180;SDS011;38158;53.338;6.514;2023-07-16T14:23:17;7.00;;;1.77;;
52180;SDS011;38158;53.338;6.514;2023-07-16T14:25:43;12.25;;;3.20;;
52180;SDS011;38158;53.338;6.514;2023-07-16T14:28:09;10.77;;;2.30;;
52180;SDS011;38158;53.338;6.514;2023-07-16T14:30:34;8.77;;;1.98;;
52180;SDS011;38158;53.338;6.514;2023-07-16T14:33:00;7.95;;;1.83;;
52180;SDS011;38158;53.338;6.514;2023-07-16T14:35:29;9.93;;;2.15;;
52180;SDS011;38158;53.338;6.514;2023-07-16T14:37:55;7.40;;;1.50;;
52180;SDS011;38158;53.338;6.514;2023-07-16T14:40:20;8.63;;;1.33;;
52180;SDS011;38158;53.338;6.514;2023-07-16T14:42:46;5.93;;;1.65;;
52180;SDS011;38158;53.338;6.514;2023-07-16T14:45:19;9.02;;;1.55;;
52180;SDS011;38158;53.338;6.514;2023-07-16T14:47:44;9.10;;;1.50;;
52180;SDS011;38158;53.338;6.514;2023-07-16T14:50:11;9.52;;;1.58;;
52180;SDS011;38158;53.338;6.514;2023-07-16T14:52:36;9.70;;;1.55;;
52180;SDS011;38158;53.338;6.514;2023-07-16T14:55:02;5.15;;;1.02;;
52180;SDS011;38158;53.338;6.514;2023-07-16T14:59:55;6.70;;;1.42;;
52180;SDS011;38158;53.338;6.514;2023-07-16T15:02:21;5.57;;;1.13;;